Time,TemperatureF,DewpointF,PressureIn,WindDirection,WindDirectionDegrees,WindSpeedMPH,WindSpeedGustMPH,Humidity,HourlyPrecipIn,Conditions,Clouds,dailyrainin,SoftwareType,DateUTC
2013-08-02 00:33:00,76.0,76.0,29.98,NNE,20,2.0,3.0,100,99.99,,,-99.99,,2013-08-02 04:33:00,
2013-08-02 00:43:00,76.0,76.0,29.98,NE,45,2.0,3.0,100,99.99,,,-99.99,,2013-08-02 04:43:00,
2013-08-02 00:53:00,76.0,76.0,29.98,NE,38,1.0,3.0,100,99.99,,,-99.99,,2013-08-02 04:53:00,
2013-08-02 01:02:00,76.0,76.0,29.98,North,0,0.0,0.0,100,99.99,,,-99.99,,2013-08-02 05:02:00,
2013-08-02 01:12:00,76.0,76.0,29.98,North,0,0.0,0.0,100,99.99,,,-99.99,,2013-08-02 05:12:00,
2013-08-02 01:22:00,75.0,75.0,29.98,North,0,0.0,0.0,100,99.99,,,-99.99,,2013-08-02 05:22:00,
2013-08-02 01:32:00,75.0,75.0,29.98,North,0,0.0,0.0,100,99.99,,,-99.99,,2013-08-02 05:32:00,
2013-08-02 01:53:00,75.0,75.0,29.98,ESE,104,1.0,3.0,100,99.99,,,-99.99,,2013-08-02 05:53:00,
2013-08-02 02:02:00,74.0,74.0,29.97,North,0,0.0,0.0,100,99.99,,,-99.99,,2013-08-02 06:02:00,
2013-08-02 02:12:00,75.0,75.0,29.97,North,0,0.0,0.0,100,99.99,,,-99.99,,2013-08-02 06:12:00,
2013-08-02 02:33:00,75.0,75.0,29.96,North,0,0.0,0.0,100,99.99,,,-99.99,,2013-08-02 06:33:00,
2013-08-02 02:43:00,75.0,75.0,29.96,North,0,0.0,0.0,100,99.99,,,-99.99,,2013-08-02 06:43:00,
2013-08-02 02:52:00,74.0,74.0,29.96,North,0,0.0,0.0,100,99.99,,,-99.99,,2013-08-02 06:52:00,
2013-08-02 03:02:00,74.0,74.0,29.96,North,0,0.0,0.0,100,99.99,,,-99.99,,2013-08-02 07:02:00,
2013-08-02 03:12:00,74.0,74.0,29.96,North,0,0.0,0.0,100,99.99,,,-99.99,,2013-08-02 07:12:00,
2013-08-02 03:22:00,74.0,74.0,29.96,North,0,0.0,0.0,100,99.99,,,-99.99,,2013-08-02 07:22:00,
2013-08-02 03:33:00,74.0,74.0,29.96,North,0,0.0,0.0,100,99.99,,,-99.99,,2013-08-02 07:33:00,
2013-08-02 03:44:00,74.0,74.0,29.96,ENE,66,2.0,3.0,100,99.99,,,-99.99,,2013-08-02 07:44:00,
2013-08-02 03:53:00,74.0,74.0,29.96,NE,42,2.0,4.0,100,99.99,,,-99.99,,2013-08-02 07:53:00,
2013-08-02 04:02:00,74.0,74.0,29.96,North,0,0.0,0.0,100,99.99,,,-99.99,,2013-08-02 08:02:00,
2013-08-02 04:12:00,74.0,74.0,29.95,East,97,0.0,2.0,100,99.99,,,-99.99,,2013-08-02 08:12:00,
2013-08-02 04:22:00,74.0,74.0,29.95,North,0,0.0,0.0,100,99.99,,,-99.99,,2013-08-02 08:22:00,
2013-08-02 04:33:00,74.0,74.0,29.95,North,0,0.0,0.0,100,99.99,,,-99.99,,2013-08-02 08:33:00,
2013-08-02 04:43:00,74.0,74.0,29.96,North,0,0.0,0.0,100,99.99,,,-99.99,,2013-08-02 08:43:00,
2013-08-02 04:53:00,74.0,74.0,29.95,North,0,0.0,0.0,100,99.99,,,-99.99,,2013-08-02 08:53:00,
2013-08-02 05:02:00,74.0,74.0,29.94,North,0,0.0,0.0,100,99.99,,,-99.99,,2013-08-02 09:02:00,
2013-08-02 05:12:00,74.0,74.0,29.95,North,0,0.0,0.0,100,99.99,,,-99.99,,2013-08-02 09:12:00,
2013-08-02 05:23:00,74.0,74.0,29.94,North,0,0.0,0.0,100,99.99,,,-99.99,,2013-08-02 09:23:00,
2013-08-02 05:33:00,74.0,74.0,29.94,North,0,0.0,0.0,100,99.99,,,-99.99,,2013-08-02 09:33:00,
2013-08-02 05:53:00,73.0,73.0,29.95,North,0,0.0,0.0,100,99.99,,,-99.99,,2013-08-02 09:53:00,
2013-08-02 06:03:00,73.0,73.0,29.95,North,0,0.0,0.0,100,99.99,,,-99.99,,2013-08-02 10:03:00,
2013-08-02 06:12:00,73.0,73.0,29.95,North,0,0.0,0.0,100,99.99,,,-99.99,,2013-08-02 10:12:00,
2013-08-02 06:43:00,73.0,73.0,29.96,North,0,0.0,0.0,100,99.99,,,-99.99,,2013-08-02 10:43:00,
2013-08-02 06:52:00,73.0,73.0,29.96,North,0,0.0,0.0,100,99.99,,,-99.99,,2013-08-02 10:52:00,
2013-08-02 07:02:00,73.0,73.0,29.96,North,0,0.0,0.0,100,99.99,,,-99.99,,2013-08-02 11:02:00,
2013-08-02 07:32:00,73.0,73.0,29.96,North,0,0.0,0.0,100,99.99,,,-99.99,,2013-08-02 11:32:00,
2013-08-02 07:43:00,73.0,73.0,29.96,North,0,0.0,0.0,100,99.99,,,-99.99,,2013-08-02 11:43:00,
2013-08-02 07:52:00,73.0,73.0,29.97,North,0,0.0,0.0,100,99.99,,,-99.99,,2013-08-02 11:52:00,
2013-08-02 08:02:00,74.0,74.0,29.97,North,0,0.0,0.0,100,99.99,,,-99.99,,2013-08-02 12:02:00,
2013-08-02 08:12:00,75.0,75.0,29.97,North,0,0.0,0.0,100,99.99,,,-99.99,,2013-08-02 12:12:00,
2013-08-02 08:33:00,77.0,77.0,29.98,North,0,0.0,0.0,100,99.99,,,-99.99,,2013-08-02 12:33:00,
2013-08-02 08:43:00,77.0,77.0,29.98,SSE,165,0.0,1.0,100,99.99,,,-99.99,,2013-08-02 12:43:00,
2013-08-02 08:52:00,77.0,77.0,29.98,North,0,0.0,0.0,100,99.99,,,-99.99,,2013-08-02 12:52:00,
2013-08-02 09:03:00,78.0,78.0,29.98,SSE,163,1.0,2.0,100,99.99,,,-99.99,,2013-08-02 13:03:00,
2013-08-02 09:12:00,78.0,78.0,29.98,North,0,0.0,0.0,100,99.99,,,-99.99,,2013-08-02 13:12:00,
2013-08-02 09:33:00,79.0,79.0,29.99,North,0,0.0,0.0,100,99.99,,,-99.99,,2013-08-02 13:33:00,
2013-08-02 09:43:00,80.0,80.0,29.99,SSE,155,0.0,2.0,100,99.99,,,-99.99,,2013-08-02 13:43:00,
2013-08-02 09:52:00,80.0,79.0,29.99,SSE,162,1.0,2.0,98,99.99,,,-99.99,,2013-08-02 13:52:00,
2013-08-02 10:02:00,81.0,79.0,29.99,North,0,0.0,0.0,94,99.99,,,-99.99,,2013-08-02 14:02:00,
2013-08-02 10:12:00,81.0,79.0,29.99,North,0,0.0,0.0,94,99.99,,,-99.99,,2013-08-02 14:12:00,
2013-08-02 10:22:00,82.0,78.0,30.00,South,179,1.0,3.0,87,99.99,,,-99.99,,2013-08-02 14:22:00,
2013-08-02 10:32:00,83.0,75.0,30.00,South,186,1.0,3.0,78,99.99,,,-99.99,,2013-08-02 14:32:00,
2013-08-02 10:43:00,84.0,76.0,30.01,North,0,0.0,0.0,77,99.99,,,-99.99,,2013-08-02 14:43:00,
2013-08-02 10:53:00,83.0,77.0,30.01,North,0,0.0,0.0,81,99.99,,,-99.99,,2013-08-02 14:53:00,
2013-08-02 11:03:00,83.0,75.0,30.01,North,0,0.0,0.0,78,99.99,,,-99.99,,2013-08-02 15:03:00,
2013-08-02 11:12:00,83.0,75.0,30.02,North,10,3.0,5.0,77,99.99,,,-99.99,,2013-08-02 15:12:00,
2013-08-02 11:22:00,83.0,73.0,30.02,NNW,345,3.0,6.0,71,99.99,,,-99.99,,2013-08-02 15:22:00,
2013-08-02 11:32:00,84.0,75.0,30.02,NNE,17,2.0,4.0,74,99.99,,,-99.99,,2013-08-02 15:32:00,
2013-08-02 11:43:00,84.0,72.0,30.02,NNW,335,2.0,5.0,67,99.99,,,-99.99,,2013-08-02 15:43:00,
2013-08-02 11:52:00,84.0,73.0,30.02,NNW,346,2.0,6.0,69,99.99,,,-99.99,,2013-08-02 15:52:00,
2013-08-02 12:02:00,85.0,72.0,30.02,NNW,346,2.0,6.0,66,99.99,,,-99.99,,2013-08-02 16:02:00,
2013-08-02 12:12:00,86.0,73.0,30.02,North,4,2.0,7.0,65,99.99,,,-99.99,,2013-08-02 16:12:00,
2013-08-02 12:32:00,86.0,72.0,30.02,North,354,3.0,6.0,64,99.99,,,-99.99,,2013-08-02 16:32:00,
2013-08-02 12:43:00,87.0,72.0,30.03,North,352,3.0,7.0,62,99.99,,,-99.99,,2013-08-02 16:43:00,
2013-08-02 12:52:00,87.0,71.0,30.02,NNW,342,4.0,9.0,59,99.99,,,-99.99,,2013-08-02 16:52:00,
2013-08-02 13:02:00,87.0,70.0,30.02,NNW,340,3.0,9.0,58,99.99,,,-99.99,,2013-08-02 17:02:00,
2013-08-02 13:12:00,87.0,70.0,30.02,NW,314,4.0,8.0,58,99.99,,,-99.99,,2013-08-02 17:12:00,
2013-08-02 13:22:00,87.0,71.0,30.01,North,4,5.0,10.0,60,99.99,,,-99.99,,2013-08-02 17:22:00,
2013-08-02 13:52:00,87.0,72.0,30.01,North,359,3.0,7.0,61,99.99,,,-99.99,,2013-08-02 17:52:00,
2013-08-02 14:32:00,89.0,72.0,29.99,North,353,5.0,10.0,57,99.99,,,-99.99,,2013-08-02 18:32:00,
2013-08-02 14:43:00,89.0,70.0,29.99,North,352,4.0,7.0,54,99.99,,,-99.99,,2013-08-02 18:43:00,
2013-08-02 14:52:00,90.0,72.0,29.99,NNW,346,3.0,6.0,55,99.99,,,-99.99,,2013-08-02 18:52:00,
2013-08-02 15:32:00,91.0,71.0,29.98,North,359,4.0,8.0,53,99.99,,,-99.99,,2013-08-02 19:32:00,
2013-08-02 15:43:00,91.0,71.0,29.98,North,6,2.0,6.0,53,99.99,,,-99.99,,2013-08-02 19:43:00,
2013-08-02 15:52:00,91.0,72.0,29.98,North,353,4.0,8.0,54,99.99,,,-99.99,,2013-08-02 19:52:00,
2013-08-02 16:02:00,91.0,71.0,29.97,NNW,342,6.0,9.0,53,99.99,,,-99.99,,2013-08-02 20:02:00,
2013-08-02 16:43:00,91.0,71.0,29.96,NNE,20,3.0,5.0,52,99.99,,,-99.99,,2013-08-02 20:43:00,
2013-08-02 16:52:00,89.0,68.0,29.95,North,357,5.0,9.0,51,99.99,,,-99.99,,2013-08-02 20:52:00,
2013-08-02 17:03:00,88.0,71.0,29.96,North,7,2.0,5.0,58,99.99,,,-99.99,,2013-08-02 21:03:00,
2013-08-02 17:12:00,88.0,72.0,29.96,North,10,3.0,5.0,59,99.99,,,-99.99,,2013-08-02 21:12:00,
2013-08-02 17:52:00,82.0,77.0,29.96,WSW,242,7.0,9.0,85,99.99,,,-99.99,,2013-08-02 21:52:00,
2013-08-02 18:02:00,82.0,76.0,29.95,WSW,252,5.0,8.0,83,99.99,,,-99.99,,2013-08-02 22:02:00,
2013-08-02 18:12:00,83.0,77.0,29.95,WSW,256,6.0,10.0,83,99.99,,,-99.99,,2013-08-02 22:12:00,
2013-08-02 19:02:00,76.0,76.0,30.01,North,357,8.0,14.0,99,99.99,,,-99.99,,2013-08-02 23:02:00,
2013-08-02 19:12:00,75.0,75.0,30.01,North,1,2.0,6.0,100,99.99,,,-99.99,,2013-08-02 23:12:00,
2013-08-02 19:22:00,75.0,75.0,30.01,SE,132,1.0,4.0,100,99.99,,,-99.99,,2013-08-02 23:22:00,
2013-08-02 19:32:00,75.0,75.0,30.00,NNE,25,3.0,5.0,99,99.99,,,-99.99,,2013-08-02 23:32:00,
2013-08-02 19:43:00,75.0,75.0,30.01,NNE,32,4.0,7.0,100,99.99,,,-99.99,,2013-08-02 23:43:00,
2013-08-02 19:53:00,75.0,75.0,30.01,SE,146,3.0,5.0,100,99.99,,,-99.99,,2013-08-02 23:53:00,
2013-08-02 20:02:00,75.0,75.0,30.01,SE,146,3.0,5.0,100,99.99,,,-99.99,,2013-08-03 00:02:00,
2013-08-02 20:12:00,76.0,76.0,30.01,SE,129,5.0,8.0,100,99.99,,,-99.99,,2013-08-03 00:12:00,
2013-08-02 20:22:00,76.0,76.0,30.01,SSE,155,8.0,12.0,100,99.99,,,-99.99,,2013-08-03 00:22:00,
2013-08-02 20:33:00,75.0,75.0,30.01,SSE,155,6.0,9.0,100,99.99,,,-99.99,,2013-08-03 00:33:00,
2013-08-02 20:43:00,75.0,75.0,30.01,SSE,153,6.0,8.0,100,99.99,,,-99.99,,2013-08-03 00:43:00,
2013-08-02 20:52:00,75.0,75.0,30.01,SSE,167,4.0,6.0,100,99.99,,,-99.99,,2013-08-03 00:52:00,
2013-08-02 21:02:00,75.0,75.0,30.01,South,172,6.0,8.0,100,99.99,,,-99.99,,2013-08-03 01:02:00,
2013-08-02 21:12:00,75.0,75.0,30.01,South,190,3.0,7.0,100,99.99,,,-99.99,,2013-08-03 01:12:00,
2013-08-02 21:22:00,76.0,76.0,30.01,SSW,198,0.0,1.0,100,99.99,,,-99.99,,2013-08-03 01:22:00,
2013-08-02 21:32:00,75.0,75.0,30.01,North,0,0.0,0.0,100,99.99,,,-99.99,,2013-08-03 01:32:00,
2013-08-02 21:42:00,75.0,75.0,30.02,North,0,0.0,0.0,100,99.99,,,-99.99,,2013-08-03 01:42:00,
2013-08-02 21:53:00,75.0,75.0,30.02,North,0,0.0,0.0,100,99.99,,,-99.99,,2013-08-03 01:53:00,
2013-08-02 22:02:00,76.0,76.0,30.03,SSW,212,0.0,2.0,100,99.99,,,-99.99,,2013-08-03 02:02:00,
2013-08-02 22:12:00,76.0,76.0,30.03,SW,214,1.0,3.0,100,99.99,,,-99.99,,2013-08-03 02:12:00,
2013-08-02 22:22:00,76.0,76.0,30.03,WSW,240,2.0,4.0,100,99.99,,,-99.99,,2013-08-03 02:22:00,
2013-08-02 22:32:00,76.0,76.0,30.03,SW,233,1.0,3.0,100,99.99,,,-99.99,,2013-08-03 02:32:00,
2013-08-02 22:43:00,76.0,76.0,30.03,WSW,238,1.0,3.0,100,99.99,,,-99.99,,2013-08-03 02:43:00,
2013-08-02 22:52:00,76.0,76.0,30.03,SSW,204,2.0,5.0,100,99.99,,,-99.99,,2013-08-03 02:52:00,
2013-08-02 23:12:00,76.0,76.0,30.03,SW,231,3.0,6.0,100,99.99,,,-99.99,,2013-08-03 03:12:00,
2013-08-02 23:53:00,76.0,76.0,30.03,WSW,246,1.0,2.0,100,99.99,,,-99.99,,2013-08-03 03:53:00,